createdAt,value
2018-04-10T00:01:29.388Z,14.53
2018-04-10T00:03:56.950Z,13.30
2018-04-10T00:06:24.461Z,8.90
2018-04-10T00:08:52.008Z,9.93
2018-04-10T00:11:20.304Z,7.87
2018-04-10T00:13:47.853Z,10.30
2018-04-10T00:16:15.373Z,9.83
2018-04-10T00:18:43.663Z,11.53
2018-04-10T00:21:11.203Z,9.53
2018-04-10T00:23:39.486Z,12.07
2018-04-10T00:26:07.807Z,13.63
2018-04-10T00:28:36.100Z,10.03
2018-04-10T00:31:03.643Z,10.17
2018-04-10T00:33:31.163Z,9.30
2018-04-10T00:35:58.704Z,10.30
2018-04-10T00:38:27.000Z,12.97
2018-04-10T00:40:54.555Z,8.80
2018-04-10T00:43:22.075Z,7.23
2018-04-10T00:45:49.592Z,9.10
2018-04-10T00:48:17.124Z,8.97
2018-04-10T00:50:45.415Z,8.80
2018-04-10T00:56:16.470Z,10.43
2018-04-10T00:58:44.018Z,11.87
2018-04-10T01:01:12.318Z,12.17
2018-04-10T01:03:39.864Z,11.13
2018-04-10T01:06:07.390Z,10.20
2018-04-10T01:08:34.932Z,11.77
2018-04-10T01:11:02.463Z,9.33
2018-04-10T01:13:29.998Z,12.53
2018-04-10T01:15:57.524Z,16.73
2018-04-10T01:18:25.842Z,19.27
2018-04-10T01:20:53.372Z,12.27
2018-04-10T01:23:21.682Z,13.27
2018-04-10T01:25:49.227Z,12.20
2018-04-10T01:28:16.781Z,11.77
2018-04-10T01:30:44.304Z,14.23
2018-04-10T01:33:11.847Z,14.17
2018-04-10T01:35:39.372Z,13.50
2018-04-10T01:38:06.906Z,15.90
2018-04-10T01:40:34.432Z,14.50
2018-04-10T01:43:01.983Z,13.80
2018-04-10T01:45:29.529Z,11.70
2018-04-10T01:47:57.069Z,13.63
2018-04-10T01:50:24.600Z,11.20
2018-04-10T01:52:52.144Z,9.47
2018-04-10T01:55:20.438Z,12.63
2018-04-10T01:57:47.976Z,13.70
2018-04-10T02:00:16.273Z,11.50
2018-04-10T02:02:43.822Z,11.50
2018-04-10T02:05:12.128Z,11.97
2018-04-10T02:07:39.667Z,11.20
2018-04-10T02:10:07.188Z,11.03
2018-04-10T02:12:34.742Z,8.73
2018-04-10T02:15:02.258Z,10.50
2018-04-10T02:17:29.812Z,12.57
2018-04-10T02:19:57.327Z,11.27
2018-04-10T02:22:25.645Z,14.73
2018-04-10T02:24:53.176Z,10.80
2018-04-10T02:27:21.484Z,12.13
2018-04-10T02:29:49.016Z,14.57
2018-04-10T02:32:16.568Z,12.93
2018-04-10T02:34:44.863Z,12.47
2018-04-10T02:37:12.404Z,14.20
2018-04-10T02:39:40.692Z,10.13
2018-04-10T02:42:08.224Z,12.10
2018-04-10T02:44:35.739Z,12.53
2018-04-10T02:47:03.292Z,17.37
2018-04-10T02:49:30.831Z,14.97
2018-04-10T02:51:58.359Z,15.90
2018-04-10T02:54:26.673Z,13.30
2018-04-10T02:56:54.194Z,12.63
2018-04-10T02:59:21.742Z,13.90
2018-04-10T03:01:49.268Z,12.53
2018-04-10T03:04:16.816Z,11.97
2018-04-10T03:06:44.351Z,12.50
2018-04-10T03:09:11.900Z,10.83
2018-04-10T03:11:40.189Z,10.13
2018-04-10T03:14:07.732Z,11.87
2018-04-10T03:16:36.014Z,10.73
2018-04-10T03:19:03.564Z,13.27
2018-04-10T03:21:31.858Z,12.47
2018-04-10T03:23:59.390Z,10.90
2018-04-10T03:26:27.692Z,10.77
2018-04-10T03:28:55.259Z,14.83
2018-04-10T03:31:22.780Z,15.20
2018-04-10T03:33:51.091Z,11.20
2018-04-10T03:36:18.610Z,10.03
2018-04-10T03:38:46.924Z,12.90
2018-04-10T03:41:14.439Z,11.07
2018-04-10T03:43:41.983Z,15.93
2018-04-10T03:46:09.503Z,13.77
2018-04-10T03:48:37.042Z,15.57
2018-04-10T03:51:05.327Z,14.57
2018-04-10T03:53:32.867Z,14.20
2018-04-10T03:56:01.153Z,12.97
2018-04-10T03:58:28.696Z,13.43
2018-04-10T04:00:56.992Z,14.90
2018-04-10T04:03:24.537Z,12.23
2018-04-10T04:05:52.819Z,11.13
2018-04-10T04:08:20.365Z,11.00
2018-04-10T04:10:48.647Z,13.17
2018-04-10T04:13:16.196Z,17.90
2018-04-10T04:15:44.484Z,14.10
2018-04-10T04:18:24.667Z,12.43
2018-04-10T04:21:04.062Z,11.27
2018-04-10T04:23:32.370Z,15.53
2018-04-10T04:25:59.950Z,14.97
2018-04-10T04:28:27.480Z,18.03
2018-04-10T04:30:55.007Z,17.87
2018-04-10T04:33:22.544Z,13.03
2018-04-10T04:35:50.070Z,21.20
2018-04-10T04:38:17.610Z,18.93
2018-04-10T04:40:45.138Z,20.30
2018-04-10T04:43:12.734Z,17.77
2018-04-10T04:45:40.267Z,19.07
2018-04-10T04:48:08.631Z,21.77
2018-04-10T04:50:36.166Z,16.47
2018-04-10T04:53:03.771Z,14.53
2018-04-10T04:55:31.345Z,17.40
2018-04-10T04:57:58.920Z,15.40
2018-04-10T05:00:26.476Z,14.13
2018-04-10T05:02:54.006Z,19.77
2018-04-10T05:05:22.363Z,17.27
2018-04-10T05:07:49.896Z,16.13
2018-04-10T05:10:17.438Z,16.40
2018-04-10T05:12:44.972Z,16.10
2018-04-10T05:15:12.523Z,16.47
2018-04-10T05:17:40.067Z,20.37
2018-04-10T05:20:08.380Z,19.33
2018-04-10T05:22:35.916Z,20.37
2018-04-10T05:25:03.549Z,20.67
2018-04-10T05:27:31.128Z,20.30
2018-04-10T05:29:58.760Z,20.53
2018-04-10T05:32:26.290Z,21.50
2018-04-10T05:34:53.912Z,20.17
2018-04-10T05:37:21.470Z,18.37
2018-04-10T05:39:49.081Z,15.90
2018-04-10T05:42:17.399Z,16.00
2018-04-10T05:44:44.968Z,17.20
2018-04-10T05:47:12.508Z,16.67
2018-04-10T05:49:40.840Z,15.87
2018-04-10T05:52:08.367Z,14.33
2018-04-10T05:54:35.908Z,12.73
2018-04-10T05:57:04.204Z,11.57
2018-04-10T05:59:31.751Z,10.70
2018-04-10T06:01:59.281Z,11.17
2018-04-10T06:04:26.826Z,11.17
2018-04-10T06:06:54.347Z,9.33
2018-04-10T06:09:21.895Z,12.30
2018-04-10T06:11:49.423Z,11.87
2018-04-10T06:14:17.740Z,10.70
2018-04-10T06:16:45.266Z,12.55
2018-04-10T06:19:13.597Z,15.57
2018-04-10T06:21:41.354Z,11.27
2018-04-10T06:24:08.888Z,12.77
2018-04-10T06:26:36.429Z,12.73
2018-04-10T06:29:03.973Z,14.10
2018-04-10T06:31:32.290Z,11.55
2018-04-10T06:33:59.818Z,9.60
2018-04-10T06:36:28.147Z,17.30
2018-04-10T06:38:55.674Z,9.75
2018-04-10T06:41:23.227Z,15.48
2018-04-10T06:43:50.759Z,9.60
2018-04-10T06:46:19.084Z,13.50
2018-04-10T06:48:46.668Z,11.77
2018-04-10T06:51:14.186Z,8.77
2018-04-10T06:53:41.734Z,13.80
2018-04-10T06:56:09.259Z,10.52
2018-04-10T06:58:36.815Z,12.23
2018-04-10T07:01:04.341Z,11.48
2018-04-10T07:03:31.888Z,14.48
2018-04-10T07:05:59.414Z,13.35
2018-04-10T07:08:27.723Z,12.05
2018-04-10T07:10:55.252Z,10.65
2018-04-10T07:13:23.568Z,15.73
2018-04-10T07:15:51.114Z,12.23
2018-04-10T07:18:18.688Z,12.98
2018-04-10T07:20:46.232Z,18.50
2018-04-10T07:23:13.766Z,17.73
2018-04-10T07:25:41.319Z,21.55
2018-04-10T07:28:08.861Z,17.60
2018-04-10T07:30:37.181Z,15.00
2018-04-10T07:33:04.711Z,17.30
2018-04-10T07:35:32.267Z,18.92
2018-04-10T07:38:00.569Z,19.08
2018-04-10T07:40:28.127Z,26.37
2018-04-10T07:42:55.659Z,19.48
2018-04-10T07:45:23.974Z,18.37
2018-04-10T07:47:51.508Z,21.92
2018-04-10T07:50:19.070Z,18.52
2018-04-10T07:52:46.603Z,18.17
2018-04-10T07:55:14.926Z,21.40
2018-04-10T07:57:42.461Z,21.42
2018-04-10T08:00:10.015Z,23.73
2018-04-10T08:02:37.561Z,22.13
2018-04-10T08:05:05.884Z,20.10
2018-04-10T08:07:33.490Z,17.58
2018-04-10T08:10:01.782Z,23.33
2018-04-10T08:12:29.339Z,20.08
2018-04-10T08:14:56.884Z,18.52
2018-04-10T08:17:25.204Z,21.73
2018-04-10T08:19:52.753Z,24.37
2018-04-10T08:22:20.361Z,20.42
2018-04-10T08:24:47.867Z,19.65
2018-04-10T08:27:15.424Z,20.48
2018-04-10T08:29:42.967Z,20.42
2018-04-10T08:32:10.537Z,23.00
2018-04-10T08:34:38.079Z,20.95
2018-04-10T08:37:05.636Z,16.50
2018-04-10T08:39:33.926Z,21.98
2018-04-10T08:42:01.493Z,18.20
2018-04-10T08:44:29.036Z,21.62
2018-04-10T08:46:56.599Z,19.87
2018-04-10T08:49:24.122Z,20.05
2018-04-10T08:51:51.671Z,18.27
2018-04-10T08:54:19.215Z,20.92
2018-04-10T08:56:46.775Z,19.45
2018-04-10T08:59:14.312Z,16.67
2018-04-10T09:01:41.881Z,20.15
2018-04-10T09:04:09.417Z,19.90
2018-04-10T09:06:36.966Z,21.58
2018-04-10T09:09:05.448Z,20.48
2018-04-10T09:11:32.984Z,20.35
2018-04-10T09:14:01.347Z,20.52
2018-04-10T09:16:28.876Z,19.60
2018-04-10T09:18:56.434Z,19.10
2018-04-10T09:21:23.980Z,18.60
2018-04-10T09:23:51.523Z,19.67
2018-04-10T09:26:19.051Z,17.15
2018-04-10T09:28:46.604Z,20.77
2018-04-10T09:31:14.916Z,21.33
2018-04-10T09:33:42.459Z,20.60
2018-04-10T09:36:09.993Z,25.40
2018-04-10T09:38:37.539Z,21.60
2018-04-10T09:41:05.072Z,22.62
2018-04-10T09:43:32.644Z,22.15
2018-04-10T09:46:00.170Z,18.83
2018-04-10T09:48:27.703Z,25.65
2018-04-10T09:50:56.036Z,21.73
2018-04-10T09:53:23.581Z,18.95
2018-04-10T09:55:51.145Z,17.45
2018-04-10T09:58:18.685Z,19.33
2018-04-10T10:00:46.245Z,19.90
2018-04-10T10:03:13.831Z,24.08
2018-04-10T10:05:41.389Z,19.50
2018-04-10T10:08:08.922Z,21.35
2018-04-10T10:10:36.472Z,25.92
2018-04-10T10:13:04.011Z,23.38
2018-04-10T10:15:31.569Z,20.33
2018-04-10T10:17:59.869Z,20.70
2018-04-10T10:20:27.420Z,18.90
2018-04-10T10:22:54.960Z,20.37
2018-04-10T10:25:23.277Z,22.77
2018-04-10T10:27:50.815Z,26.17
2018-04-10T10:30:18.376Z,23.25
2018-04-10T10:32:45.905Z,22.15
2018-04-10T10:35:14.234Z,22.85
2018-04-10T10:37:41.767Z,24.52
2018-04-10T10:40:09.287Z,20.48
2018-04-10T10:42:36.844Z,20.58
2018-04-10T10:45:04.378Z,22.37
2018-04-10T10:47:31.937Z,22.50
2018-04-10T10:49:59.467Z,22.52
2018-04-10T10:52:27.025Z,23.08
2018-04-10T10:54:54.571Z,24.80
2018-04-10T10:57:22.119Z,24.27
2018-04-10T10:59:49.651Z,29.80
2018-04-10T11:02:17.199Z,22.10
2018-04-10T11:04:44.722Z,36.45
2018-04-10T11:07:12.277Z,29.05
2018-04-10T11:09:39.845Z,29.98
2018-04-10T11:12:07.371Z,26.62
2018-04-10T11:14:34.914Z,21.80
2018-04-10T11:17:03.244Z,24.35
2018-04-10T11:19:30.777Z,25.12
2018-04-10T11:21:58.331Z,28.92
2018-04-10T11:24:25.868Z,26.25
2018-04-10T11:26:53.427Z,27.27
2018-04-10T11:29:21.728Z,26.50
2018-04-10T11:31:49.291Z,26.75
2018-04-10T11:34:16.820Z,29.45
2018-04-10T11:36:45.122Z,27.60
2018-04-10T11:39:12.681Z,30.45
2018-04-10T11:41:40.214Z,28.17
2018-04-10T11:44:08.540Z,27.92
2018-04-10T11:46:36.067Z,27.27
2018-04-10T11:49:03.624Z,23.10
2018-04-10T11:51:31.157Z,27.00
2018-04-10T11:53:59.493Z,28.73
2018-04-10T11:56:27.032Z,24.65
2018-04-10T11:58:54.588Z,26.62
2018-04-10T12:01:22.119Z,28.92
2018-04-10T12:03:49.666Z,32.67
2018-04-10T12:06:17.966Z,27.33
2018-04-10T12:08:45.518Z,26.77
2018-04-10T12:11:13.070Z,24.45
2018-04-10T12:13:41.394Z,31.27
2018-04-10T12:16:08.949Z,26.90
2018-04-10T12:18:36.503Z,30.17
2018-04-10T12:21:04.031Z,28.83
2018-04-10T12:23:31.581Z,26.52
2018-04-10T12:25:59.117Z,26.08
2018-04-10T12:28:26.681Z,28.73
2018-04-10T12:30:54.256Z,30.10
2018-04-10T12:33:22.551Z,29.80
2018-04-10T12:35:50.131Z,31.95
2018-04-10T12:38:17.673Z,32.33
2018-04-10T12:40:45.223Z,28.30
2018-04-10T12:43:12.751Z,31.10
2018-04-10T12:45:40.304Z,35.72
2018-04-10T12:48:07.840Z,27.23
2018-04-10T12:50:35.399Z,25.30
2018-04-10T12:53:02.937Z,34.75
2018-04-10T12:55:30.496Z,31.77
2018-04-10T12:57:58.031Z,30.48
2018-04-10T13:00:25.580Z,28.87
2018-04-10T13:02:53.118Z,38.05
2018-04-10T13:05:21.456Z,33.88
2018-04-10T13:07:48.991Z,36.13
2018-04-10T13:10:16.535Z,30.80
2018-04-10T13:12:44.064Z,29.80
2018-04-10T13:15:11.631Z,29.45
2018-04-10T13:17:39.928Z,30.48
2018-04-10T13:20:07.477Z,31.17
2018-04-10T13:22:35.776Z,33.67
2018-04-10T13:25:03.343Z,27.70
2018-04-10T13:27:30.879Z,27.98
2018-04-10T13:29:58.420Z,30.95
2018-04-10T13:32:26.750Z,30.77
2018-04-10T13:34:54.279Z,31.05
2018-04-10T13:37:21.827Z,31.65
2018-04-10T13:39:50.129Z,28.58
2018-04-10T13:42:17.705Z,33.00
2018-04-10T13:44:45.236Z,34.75
2018-04-10T13:47:12.783Z,32.15
2018-04-10T13:49:40.315Z,33.53
2018-04-10T13:52:07.864Z,31.80
2018-04-10T13:54:35.397Z,32.88
2018-04-10T13:57:03.091Z,33.33
2018-04-10T13:59:31.447Z,32.88
2018-04-10T14:01:59.024Z,33.30
2018-04-10T14:04:26.559Z,32.15
2018-04-10T14:06:54.139Z,31.52
2018-04-10T14:09:21.672Z,36.40
2018-04-10T14:11:49.281Z,51.58
2018-04-10T14:14:16.811Z,36.67
2018-04-10T14:16:44.380Z,34.92
2018-04-10T14:19:11.907Z,36.03
2018-04-10T14:21:39.440Z,32.90
2018-04-10T14:24:06.984Z,36.72
2018-04-10T14:26:34.619Z,36.72
2018-04-10T14:29:02.176Z,33.47
2018-04-10T14:31:29.708Z,31.85
2018-04-10T14:33:57.256Z,36.40
2018-04-10T14:36:24.789Z,34.38
2018-04-10T14:38:52.342Z,34.75
2018-04-10T14:41:19.913Z,33.50
2018-04-10T14:43:47.470Z,32.65
2018-04-10T14:46:15.000Z,34.25
2018-04-10T14:48:43.333Z,38.58
2018-04-10T14:51:10.866Z,31.95
2018-04-10T14:53:38.432Z,41.95
2018-04-10T14:56:05.951Z,36.83
2018-04-10T14:58:34.260Z,40.00
2018-04-10T15:01:01.795Z,32.92
2018-04-10T15:03:29.353Z,34.17
2018-04-10T15:05:56.896Z,37.83
2018-04-10T15:08:25.226Z,37.65
2018-04-10T15:10:52.756Z,36.40
2018-04-10T15:13:20.337Z,30.83
2018-04-10T15:15:47.880Z,36.90
2018-04-10T15:18:15.427Z,33.53
2018-04-10T15:20:42.979Z,35.38
2018-04-10T15:23:10.521Z,40.35
2018-04-10T15:25:38.844Z,37.33
2018-04-10T15:28:06.380Z,35.53
2018-04-10T15:30:33.937Z,35.10
2018-04-10T15:33:01.467Z,33.88
2018-04-10T15:35:29.787Z,34.20
2018-04-10T15:37:57.339Z,34.50
2018-04-10T15:40:24.900Z,36.38
2018-04-10T15:42:52.431Z,35.35
2018-04-10T15:45:20.760Z,37.97
2018-04-10T15:47:48.356Z,38.20
2018-04-10T15:50:16.683Z,41.37
2018-04-10T15:52:44.224Z,34.13
2018-04-10T15:55:11.779Z,35.97
2018-04-10T15:57:39.389Z,32.45
2018-04-10T16:00:06.935Z,39.10
2018-04-10T16:02:34.482Z,36.22
2018-04-10T16:05:02.031Z,41.15
2018-04-10T16:07:29.563Z,34.65
2018-04-10T16:09:57.112Z,42.45
2018-04-10T16:12:25.408Z,34.65
2018-04-10T16:14:52.946Z,31.05
2018-04-10T16:17:20.471Z,31.33
2018-04-10T16:19:48.015Z,34.75
2018-04-10T16:22:15.549Z,28.65
2018-04-10T16:24:43.097Z,33.40
2018-04-10T16:27:10.665Z,31.55
2018-04-10T16:29:38.215Z,31.70
2018-04-10T16:32:05.752Z,34.92
2018-04-10T16:34:34.072Z,35.58
2018-04-10T16:37:01.594Z,33.63
2018-04-10T16:39:29.912Z,32.78
2018-04-10T16:41:57.465Z,31.52
2018-04-10T16:44:25.030Z,31.60
2018-04-10T16:46:52.555Z,31.80
2018-04-10T16:49:20.107Z,28.62
2018-04-10T16:51:48.404Z,32.53
2018-04-10T16:54:15.950Z,45.70
2018-04-10T16:56:43.479Z,40.17
2018-04-10T16:59:11.026Z,35.60
2018-04-10T17:01:38.572Z,40.05
2018-04-10T17:04:06.110Z,53.40
2018-04-10T17:06:33.638Z,40.90
2018-04-10T17:09:01.197Z,42.85
2018-04-10T17:11:28.732Z,45.17
2018-04-10T17:13:57.049Z,38.58
2018-04-10T17:16:24.627Z,40.40
2018-04-10T17:18:52.207Z,43.00
2018-04-10T17:21:19.749Z,31.27
2018-04-10T17:23:47.317Z,29.77
2018-04-10T17:26:14.856Z,32.43
2018-04-10T17:28:42.424Z,37.63
2018-04-10T17:31:09.995Z,30.00
2018-04-10T17:33:37.542Z,31.02
2018-04-10T17:36:05.081Z,28.40
2018-04-10T17:38:32.653Z,30.23
2018-04-10T17:41:00.183Z,29.47
2018-04-10T17:43:27.723Z,28.63
2018-04-10T17:45:56.020Z,29.10
2018-04-10T17:48:23.578Z,26.00
2018-04-10T17:50:51.099Z,28.97
2018-04-10T17:53:18.642Z,22.87
2018-04-10T17:55:46.182Z,27.20
2018-04-10T17:58:13.808Z,26.97
2018-04-10T18:00:42.074Z,25.77
2018-04-10T18:03:10.211Z,29.27
2018-04-10T18:05:37.763Z,28.20
2018-04-10T18:08:05.287Z,35.40
2018-04-10T18:10:32.846Z,27.40
2018-04-10T18:13:00.385Z,29.00
2018-04-10T18:15:27.956Z,28.60
2018-04-10T18:17:55.494Z,30.37
2018-04-10T18:20:23.046Z,63.50
2018-04-10T18:22:51.342Z,40.83
2018-04-10T18:25:18.886Z,29.37
2018-04-10T18:27:46.419Z,28.97
2018-04-10T18:30:14.005Z,31.83
2018-04-10T18:32:42.304Z,26.03
2018-04-10T18:35:09.870Z,27.17
2018-04-10T18:37:37.424Z,29.17
2018-04-10T18:40:04.994Z,27.27
2018-04-10T18:42:32.633Z,26.43
2018-04-10T18:45:00.503Z,25.33
2018-04-10T18:47:28.037Z,26.80
2018-04-10T18:49:56.884Z,25.73
2018-04-10T18:52:24.418Z,22.70
2018-04-10T18:54:51.978Z,25.90
2018-04-10T18:57:19.575Z,25.63
2018-04-10T18:59:47.255Z,24.17
2018-04-10T19:02:15.920Z,23.57
2018-04-10T19:04:43.906Z,22.40
2018-04-10T19:07:12.232Z,19.20
2018-04-10T19:09:39.894Z,19.87
2018-04-10T19:12:07.419Z,24.80
2018-04-10T19:14:35.111Z,19.93
2018-04-10T19:17:02.718Z,21.60
2018-04-10T19:19:31.055Z,21.87
2018-04-10T19:21:58.588Z,25.53
2018-04-10T19:24:26.157Z,22.87
2018-04-10T19:26:53.703Z,22.93
2018-04-10T19:29:21.270Z,22.77
2018-04-10T19:31:48.801Z,24.37
2018-04-10T19:34:16.378Z,22.03
2018-04-10T19:36:43.950Z,21.27
2018-04-10T19:39:11.508Z,18.67
2018-04-10T19:41:40.299Z,25.17
2018-04-10T19:44:07.953Z,16.67
2018-04-10T19:46:35.484Z,20.87
2018-04-10T19:49:03.855Z,16.07
2018-04-10T19:51:31.749Z,18.00
2018-04-10T19:53:59.325Z,18.43
2018-04-10T19:56:27.248Z,19.20
2018-04-10T19:58:54.913Z,20.63
2018-04-10T20:01:23.256Z,15.07
2018-04-10T20:03:51.144Z,16.30
2018-04-10T20:06:19.473Z,16.70
2018-04-10T20:08:47.120Z,19.23
2018-04-10T20:11:14.790Z,22.97
2018-04-10T20:13:42.427Z,22.03
2018-04-10T20:16:10.747Z,20.43
2018-04-10T20:18:39.095Z,20.47
2018-04-10T20:21:06.726Z,22.37
2018-04-10T20:23:35.393Z,18.87
2018-04-10T20:26:02.949Z,22.53
2018-04-10T20:28:30.492Z,24.37
2018-04-10T20:30:58.051Z,24.63
2018-04-10T20:33:25.593Z,28.20
2018-04-10T20:35:53.146Z,24.77
2018-04-10T20:38:20.689Z,22.13
2018-04-10T20:40:48.244Z,21.73
2018-04-10T20:43:15.784Z,23.13
2018-04-10T20:45:44.107Z,23.47
2018-04-10T20:48:11.646Z,19.10
2018-04-10T20:50:39.216Z,23.00
2018-04-10T20:53:06.772Z,22.77
2018-04-10T20:55:34.357Z,20.10
2018-04-10T20:58:02.252Z,22.50
2018-04-10T21:00:29.850Z,22.90
2018-04-10T21:02:57.452Z,24.40
2018-04-10T21:05:25.068Z,27.57
2018-04-10T21:07:52.656Z,25.23
2018-04-10T21:10:20.296Z,31.47
2018-04-10T21:12:47.883Z,31.07
2018-04-10T21:15:15.500Z,34.00
2018-04-10T21:17:43.223Z,30.83
2018-04-10T21:20:10.837Z,25.80
2018-04-10T21:22:38.467Z,27.70
2018-04-10T21:25:06.097Z,29.30
2018-04-10T21:27:33.689Z,23.77
2018-04-10T21:30:01.358Z,24.77
2018-04-10T21:32:28.954Z,22.20
2018-04-10T21:34:56.622Z,23.97
2018-04-10T21:37:24.191Z,23.90
2018-04-10T21:39:51.815Z,18.47
2018-04-10T21:42:19.396Z,26.80
2018-04-10T21:44:47.004Z,21.17
2018-04-10T21:47:15.412Z,19.33
2018-04-10T21:49:43.012Z,23.53
2018-04-10T21:52:10.588Z,19.20
2018-04-10T21:54:38.218Z,14.57
2018-04-10T21:57:05.864Z,15.87
2018-04-10T21:59:33.505Z,14.70
2018-04-10T22:02:01.143Z,12.07
2018-04-10T22:04:28.796Z,10.20
2018-04-10T22:06:57.160Z,8.90
2018-04-10T22:09:24.745Z,12.70
2018-04-10T22:11:52.359Z,12.10
2018-04-10T22:14:19.956Z,10.07
2018-04-10T22:16:48.323Z,10.93
2018-04-10T22:19:16.650Z,8.87
2018-04-10T22:21:44.297Z,13.13
2018-04-10T22:24:11.868Z,8.63
2018-04-10T22:26:39.510Z,10.23
2018-04-10T22:29:07.382Z,11.47
2018-04-10T22:31:35.010Z,7.80
2018-04-10T22:34:02.622Z,13.60
2018-04-10T22:36:30.283Z,7.53
2018-04-10T22:38:57.945Z,8.83
2018-04-10T22:41:25.618Z,7.43
2018-04-10T22:43:53.195Z,10.10
2018-04-10T22:46:20.793Z,7.33
2018-04-10T22:48:48.423Z,6.97
2018-04-10T22:51:15.993Z,6.53
2018-04-10T22:53:43.639Z,7.20
2018-04-10T22:56:11.260Z,9.43
2018-04-10T22:58:38.873Z,8.07
2018-04-10T23:01:06.512Z,7.77
2018-04-10T23:03:34.161Z,6.17
2018-04-10T23:06:01.749Z,5.77
2018-04-10T23:08:29.357Z,8.93
2018-04-10T23:10:56.976Z,5.37
2018-04-10T23:13:24.636Z,6.97
2018-04-10T23:15:52.229Z,5.77
2018-04-10T23:18:19.835Z,6.30
2018-04-10T23:20:47.469Z,6.60
2018-04-10T23:23:15.074Z,5.80
2018-04-10T23:25:42.683Z,5.50
2018-04-10T23:28:10.289Z,6.70
2018-04-10T23:30:38.677Z,5.13
2018-04-10T23:33:06.312Z,7.17
2018-04-10T23:35:33.948Z,5.07
2018-04-10T23:38:01.545Z,4.77
2018-04-10T23:40:29.204Z,5.30
2018-04-10T23:42:56.828Z,8.93
2018-04-10T23:45:24.443Z,9.00
2018-04-10T23:47:52.045Z,6.67
2018-04-10T23:50:19.642Z,5.67
2018-04-10T23:52:47.257Z,5.97
2018-04-10T23:55:14.845Z,6.30
2018-04-10T23:57:42.442Z,8.23
